Time;durP1;ratioP1;P1;durP2;ratioP2;P2;SDS_P1;SDS_P2;PMS_P1;PMS_P2;Temp;Humidity;BMP_temperature;BMP_pressure;BME280_temperature;BME280_humidity;BME280_pressure;Samples;Min_cycle;Max_cycle;Signal;HPM_P1;HPM_P2
2021/09/06 00:02:18;;;;;;;;;;;12.60;99.90;;;;;;4993629;28;19960;-74
2021/09/06 00:04:44;;;;;;;;;;;12.50;99.90;;;;;;5009689;28;20452;-74
2021/09/06 00:07:16;;;;;;;;;;;12.50;99.90;;;;;;4995000;28;19925;-74
2021/09/06 00:09:52;;;;;;;;;;;12.50;99.90;;;;;;5011079;28;19929;-74
2021/09/06 00:12:19;;;;;;;;;;;12.50;99.90;;;;;;4993602;28;19929;-74
2021/09/06 00:14:50;;;;;;;;;;;12.50;99.90;;;;;;4992943;28;19932;-74
2021/09/06 00:17:22;;;;;;;;;;;12.50;99.90;;;;;;4993495;28;19929;-74
2021/09/06 00:19:53;;;;;;;;;;;12.50;99.90;;;;;;4993306;28;19929;-74
2021/09/06 00:22:20;;;;;;;;;;;12.50;99.90;;;;;;4998857;28;20024;-73
2021/09/06 00:24:52;;;;;;;;;;;12.50;99.90;;;;;;5006592;28;20036;-73
2021/09/06 00:27:23;;;;;;;;;;;12.50;99.90;;;;;;5005931;28;19969;-75
2021/09/06 00:29:56;;;;;;;;;;;12.50;99.90;;;;;;4993300;28;20004;-73
2021/09/06 00:32:28;;;;;;;;;;;12.30;99.90;;;;;;4997734;28;19925;-73
2021/09/06 00:35:00;;;;;;;;;;;12.20;99.90;;;;;;5000887;28;19926;-74
2021/09/06 00:37:27;;;;;;;;;;;12.20;99.90;;;;;;5008217;28;19980;-73
2021/09/06 00:39:59;;;;;;;;;;;12.20;99.90;;;;;;5013550;28;20035;-74
2021/09/06 00:42:30;;;;;;;;;;;12.20;99.90;;;;;;4992824;28;19925;-74
2021/09/06 00:45:02;;;;;;;;;;;12.20;99.90;;;;;;5010479;28;20358;-74
2021/09/06 00:47:35;;;;;;;;;;;12.10;99.90;;;;;;4996080;28;19930;-74
2021/09/06 00:50:09;;;;;;;;;;;12.20;99.90;;;;;;4997899;28;19933;-74
2021/09/06 00:52:37;;;;;;;;;;;12.10;99.90;;;;;;4998081;28;20040;-74
2021/09/06 00:55:04;;;;;;;;;;;12.20;99.90;;;;;;4997587;28;20052;-73
2021/09/06 00:57:32;;;;;;;;;;;12.20;99.90;;;;;;4997634;28;19929;-74
2021/09/06 01:00:05;;;;;;;;;;;12.20;99.90;;;;;;4998422;28;20272;-74
2021/09/06 01:02:37;;;;;;;;;;;12.10;99.90;;;;;;4997991;28;20414;-74
2021/09/06 01:05:10;;;;;;;;;;;12.10;99.90;;;;;;5013243;28;19929;-73
2021/09/06 01:08:12;;;;;;;;;;;12.10;99.90;;;;;;4996883;28;20392;-74
2021/09/06 01:11:14;;;;;;;;;;;12.10;99.90;;;;;;4961091;28;19974;-74
2021/09/06 01:14:04;;;;;;;;;;;12.10;99.90;;;;;;4950429;28;19933;-74
2021/09/06 01:16:35;;;;;;;;;;;12.00;99.90;;;;;;4997071;28;19983;-74
2021/09/06 01:19:08;;;;;;;;;;;12.00;99.90;;;;;;4996465;28;19926;-74
2021/09/06 01:21:36;;;;;;;;;;;12.00;99.90;;;;;;4996908;28;19925;-73
2021/09/06 01:24:26;;;;;;;;;;;12.00;99.90;;;;;;5013844;28;19933;-74
2021/09/06 01:26:56;;;;;;;;;;;11.90;99.90;;;;;;4996872;28;19925;-74
2021/09/06 01:29:28;;;;;;;;;;;11.90;99.90;;;;;;4997827;28;19976;-74
2021/09/06 01:32:00;;;;;;;;;;;11.90;99.90;;;;;;5013476;28;20009;-74
2021/09/06 01:34:33;;;;;;;;;;;11.90;99.90;;;;;;5013086;28;20310;-74
2021/09/06 01:37:00;;;;;;;;;;;11.90;99.90;;;;;;5012924;28;19925;-74
2021/09/06 01:39:37;;;;;;;;;;;11.90;99.90;;;;;;4996297;28;20370;-74
2021/09/06 01:42:09;;;;;;;;;;;11.80;99.90;;;;;;4996438;28;20023;-74
2021/09/06 01:44:36;;;;;;;;;;;11.80;99.90;;;;;;4995720;28;19926;-74
2021/09/06 01:47:05;;;;;;;;;;;11.80;99.90;;;;;;4996387;28;19933;-73
2021/09/06 01:49:37;;;;;;;;;;;11.80;99.90;;;;;;4996265;28;19988;-74
2021/09/06 01:52:08;;;;;;;;;;;11.70;99.90;;;;;;5012989;28;19931;-74
2021/09/06 01:54:35;;;;;;;;;;;11.70;99.90;;;;;;4996326;28;19933;-74
2021/09/06 01:57:08;;;;;;;;;;;11.60;99.90;;;;;;4996512;28;19979;-74
2021/09/06 01:59:35;;;;;;;;;;;11.60;99.90;;;;;;4995747;28;19956;-74
2021/09/06 02:02:07;;;;;;;;;;;11.50;99.90;;;;;;5012897;28;20264;-74
2021/09/06 02:04:38;;;;;;;;;;;11.60;99.90;;;;;;5012248;28;19940;-73
2021/09/06 02:07:05;;;;;;;;;;;11.50;99.90;;;;;;5012776;28;19964;-74
2021/09/06 02:09:38;;;;;;;;;;;11.60;99.90;;;;;;4996222;28;20008;-74
2021/09/06 02:12:10;;;;;;;;;;;11.50;99.90;;;;;;4997150;28;19925;-74
2021/09/06 02:14:46;;;;;;;;;;;11.50;99.90;;;;;;4997168;28;19925;-74
2021/09/06 02:17:20;;;;;;;;;;;11.40;99.90;;;;;;4996186;28;20277;-74
2021/09/06 02:19:56;;;;;;;;;;;11.40;99.90;;;;;;4995344;28;19979;-74
2021/09/06 02:22:23;;;;;;;;;;;11.40;99.90;;;;;;4996286;28;20434;-74
2021/09/06 02:24:56;;;;;;;;;;;11.40;99.90;;;;;;4995678;28;20292;-74
2021/09/06 02:27:28;;;;;;;;;;;11.40;99.90;;;;;;4996785;28;20026;-74
2021/09/06 02:29:59;;;;;;;;;;;11.40;99.90;;;;;;4995879;28;19976;-74
2021/09/06 02:32:27;;;;;;;;;;;11.40;99.90;;;;;;4996240;28;20332;-73
2021/09/06 02:35:25;;;;;;;;;;;11.40;99.90;;;;;;5004282;28;19930;-74
2021/09/06 02:37:52;;;;;;;;;;;11.40;99.90;;;;;;5012210;28;20318;-74
2021/09/06 02:40:19;;;;;;;;;;;11.30;99.90;;;;;;4995835;28;19925;-74
2021/09/06 02:42:48;;;;;;;;;;;11.30;99.90;;;;;;4995796;28;19968;-74
2021/09/06 02:45:15;;;;;;;;;;;11.30;99.90;;;;;;4995332;28;20426;-74
2021/09/06 02:47:47;;;;;;;;;;;11.30;99.90;;;;;;4996325;28;19925;-74
2021/09/06 02:50:15;;;;;;;;;;;11.20;99.90;;;;;;4995771;28;20303;-74
2021/09/06 02:52:43;;;;;;;;;;;11.20;99.90;;;;;;4995640;28;19925;-74
2021/09/06 02:55:12;;;;;;;;;;;11.20;99.90;;;;;;5011662;28;19931;-74
2021/09/06 02:57:42;;;;;;;;;;;11.10;99.90;;;;;;4996003;28;19971;-74
2021/09/06 03:00:09;;;;;;;;;;;11.20;99.90;;;;;;4995324;28;19925;-74
2021/09/06 03:02:42;;;;;;;;;;;11.20;99.90;;;;;;4995661;28;19932;-74
2021/09/06 03:05:09;;;;;;;;;;;11.20;99.90;;;;;;4985222;28;19926;-74
2021/09/06 03:07:47;;;;;;;;;;;11.10;99.90;;;;;;4995510;28;19925;-74
2021/09/06 03:10:14;;;;;;;;;;;11.10;99.90;;;;;;4989095;28;20364;-75
2021/09/06 03:12:46;;;;;;;;;;;11.10;99.90;;;;;;4993684;28;19931;-74
2021/09/06 03:15:18;;;;;;;;;;;11.00;99.90;;;;;;4994339;28;19929;-74
2021/09/06 03:17:46;;;;;;;;;;;11.00;99.90;;;;;;4994925;28;19926;-74
2021/09/06 03:20:26;;;;;;;;;;;11.00;99.90;;;;;;4994272;28;20366;-74
2021/09/06 03:22:53;;;;;;;;;;;10.90;99.90;;;;;;4994443;28;19925;-74
2021/09/06 03:25:21;;;;;;;;;;;10.90;99.90;;;;;;4993810;28;19926;-74
2021/09/06 03:27:53;;;;;;;;;;;10.90;99.90;;;;;;4994715;28;19957;-74
2021/09/06 03:30:25;;;;;;;;;;;10.90;99.90;;;;;;4995605;28;19977;-74
2021/09/06 03:32:56;;;;;;;;;;;10.80;99.90;;;;;;4995954;28;19948;-74
2021/09/06 03:35:23;;;;;;;;;;;10.80;99.90;;;;;;4984022;28;19926;-75
2021/09/06 03:37:50;;;;;;;;;;;11.10;99.90;;;;;;4991885;28;19926;-74
2021/09/06 03:40:21;;;;;;;;;;;11.40;99.90;;;;;;5011193;28;19926;-75
2021/09/06 03:42:48;;;;;;;;;;;11.40;99.90;;;;;;4994056;28;20380;-74
2021/09/06 03:45:15;;;;;;;;;;;11.40;99.90;;;;;;4994291;28;19934;-75
2021/09/06 03:47:41;;;;;;;;;;;11.30;99.90;;;;;;4993317;28;20062;-74
2021/09/06 03:50:13;;;;;;;;;;;11.20;99.90;;;;;;5010405;28;19964;-75
2021/09/06 03:52:40;;;;;;;;;;;11.10;99.90;;;;;;5011561;28;19984;-74
2021/09/06 03:55:12;;;;;;;;;;;11.00;99.90;;;;;;4993001;28;19926;-74
2021/09/06 03:57:44;;;;;;;;;;;11.00;99.90;;;;;;4992863;28;19937;-74
2021/09/06 04:00:11;;;;;;;;;;;10.90;99.90;;;;;;4993692;28;19932;-74
2021/09/06 04:02:46;;;;;;;;;;;10.80;99.90;;;;;;4995349;28;19929;-74
2021/09/06 04:05:18;;;;;;;;;;;10.70;99.90;;;;;;4993654;28;19930;-74
2021/09/06 04:07:52;;;;;;;;;;;10.70;99.90;;;;;;4994084;28;19967;-75
2021/09/06 04:10:20;;;;;;;;;;;10.70;99.90;;;;;;4993803;28;19926;-75
2021/09/06 04:12:52;;;;;;;;;;;10.70;99.90;;;;;;4993737;28;19964;-74
2021/09/06 04:15:19;;;;;;;;;;;10.60;99.90;;;;;;5009787;28;19933;-74
2021/09/06 04:17:51;;;;;;;;;;;10.60;99.90;;;;;;4994186;28;19936;-74
2021/09/06 04:20:23;;;;;;;;;;;10.60;99.90;;;;;;4993691;28;20016;-74
2021/09/06 04:22:55;;;;;;;;;;;10.50;99.90;;;;;;4996401;28;20389;-74
2021/09/06 04:25:26;;;;;;;;;;;10.40;99.90;;;;;;4997403;28;19933;-75
2021/09/06 04:27:53;;;;;;;;;;;10.40;99.90;;;;;;4997471;28;19926;-74
2021/09/06 04:30:25;;;;;;;;;;;10.40;99.90;;;;;;4997575;28;19926;-74
2021/09/06 04:32:52;;;;;;;;;;;10.40;99.90;;;;;;4997653;28;19925;-75
2021/09/06 04:35:24;;;;;;;;;;;10.40;99.90;;;;;;4998018;28;19930;-74
2021/09/06 04:37:51;;;;;;;;;;;10.40;99.90;;;;;;4998042;28;19933;-75
2021/09/06 04:40:21;;;;;;;;;;;10.30;99.90;;;;;;4998413;28;19932;-74
2021/09/06 04:42:51;;;;;;;;;;;10.30;99.90;;;;;;5014054;28;19932;-74
2021/09/06 04:45:18;;;;;;;;;;;10.30;99.90;;;;;;4997636;28;19976;-74
2021/09/06 04:47:50;;;;;;;;;;;10.30;99.90;;;;;;4998689;28;19948;-74
2021/09/06 04:50:19;;;;;;;;;;;10.30;99.90;;;;;;4998269;28;19926;-75
2021/09/06 04:52:53;;;;;;;;;;;10.30;99.90;;;;;;5015845;28;20028;-74
2021/09/06 04:55:20;;;;;;;;;;;10.30;99.90;;;;;;4997522;28;19929;-74
2021/09/06 04:57:46;;;;;;;;;;;10.30;99.90;;;;;;4997877;28;20016;-74
2021/09/06 05:00:13;;;;;;;;;;;10.30;99.90;;;;;;4997539;28;20351;-74
2021/09/06 05:02:45;;;;;;;;;;;10.30;99.90;;;;;;4994266;28;20437;-75
2021/09/06 05:05:15;;;;;;;;;;;10.30;99.90;;;;;;4995570;28;19933;-75
2021/09/06 05:07:47;;;;;;;;;;;10.40;99.90;;;;;;4996089;28;19934;-75
2021/09/06 05:10:14;;;;;;;;;;;10.40;99.90;;;;;;4995507;28;19975;-74
2021/09/06 05:12:42;;;;;;;;;;;10.40;99.90;;;;;;4995683;28;19926;-74
2021/09/06 05:15:09;;;;;;;;;;;10.40;99.90;;;;;;4995418;28;19925;-74
2021/09/06 05:17:35;;;;;;;;;;;10.40;99.90;;;;;;4995535;28;20153;-74
2021/09/06 05:20:03;;;;;;;;;;;10.40;99.90;;;;;;5014770;28;20008;-74
2021/09/06 05:22:32;;;;;;;;;;;10.40;99.90;;;;;;5010946;28;19987;-74
2021/09/06 05:25:08;;;;;;;;;;;10.40;99.90;;;;;;4997310;28;19965;-74
2021/09/06 05:27:36;;;;;;;;;;;10.40;99.90;;;;;;5011544;28;20327;-74
2021/09/06 05:30:08;;;;;;;;;;;10.40;99.90;;;;;;4995357;28;19926;-75
2021/09/06 05:32:39;;;;;;;;;;;10.40;99.90;;;;;;4994908;28;20016;-74
2021/09/06 05:35:11;;;;;;;;;;;10.30;99.90;;;;;;4993630;28;20336;-74
2021/09/06 05:37:45;;;;;;;;;;;10.40;99.90;;;;;;4995185;28;19933;-75
2021/09/06 05:40:23;;;;;;;;;;;10.40;99.90;;;;;;4994609;28;19952;-74
2021/09/06 05:42:55;;;;;;;;;;;10.40;99.90;;;;;;4994798;28;20403;-75
2021/09/06 05:45:22;;;;;;;;;;;10.40;99.90;;;;;;4993829;28;20292;-75
2021/09/06 05:47:54;;;;;;;;;;;10.50;99.90;;;;;;4995776;28;20388;-75
2021/09/06 05:50:21;;;;;;;;;;;10.50;99.90;;;;;;4994789;28;19926;-75
2021/09/06 05:53:17;;;;;;;;;;;10.60;99.90;;;;;;5008371;28;19929;-74
2021/09/06 05:55:43;;;;;;;;;;;10.60;99.90;;;;;;4993870;28;19968;-75
2021/09/06 05:58:13;;;;;;;;;;;10.60;99.90;;;;;;4994473;28;19968;-74
2021/09/06 06:00:45;;;;;;;;;;;10.60;99.90;;;;;;4977054;28;19926;-74
2021/09/06 06:03:12;;;;;;;;;;;10.70;99.90;;;;;;4993876;28;19925;-75
2021/09/06 06:05:44;;;;;;;;;;;10.70;99.90;;;;;;4992770;28;19929;-74
2021/09/06 06:08:11;;;;;;;;;;;10.80;99.90;;;;;;5009784;28;20391;-74
2021/09/06 06:10:38;;;;;;;;;;;10.80;99.90;;;;;;4993856;28;19971;-75
2021/09/06 06:13:07;;;;;;;;;;;10.80;99.90;;;;;;4993911;28;20027;-74
2021/09/06 06:15:39;;;;;;;;;;;10.90;99.90;;;;;;4994573;28;19926;-75
2021/09/06 06:18:06;;;;;;;;;;;10.90;99.90;;;;;;4995247;28;19932;-73
2021/09/06 06:20:33;;;;;;;;;;;11.00;99.90;;;;;;4996135;28;19944;-75
2021/09/06 06:23:11;;;;;;;;;;;11.00;99.90;;;;;;5003515;28;20644;-74
2021/09/06 06:25:57;;;;;;;;;;;11.10;99.90;;;;;;5013284;28;19975;-75
2021/09/06 06:28:23;;;;;;;;;;;11.20;99.90;;;;;;5012075;28;20453;-74
2021/09/06 06:30:56;;;;;;;;;;;11.20;99.90;;;;;;5016402;28;19944;-75
2021/09/06 06:33:26;;;;;;;;;;;11.30;99.90;;;;;;5000256;28;19930;-75
2021/09/06 06:36:03;;;;;;;;;;;11.40;99.90;;;;;;5019997;28;19925;-75
2021/09/06 06:38:36;;;;;;;;;;;11.50;99.90;;;;;;5007442;28;19940;-74
2021/09/06 06:41:03;;;;;;;;;;;11.50;99.90;;;;;;5004192;28;19925;-74
2021/09/06 06:43:42;;;;;;;;;;;11.60;99.90;;;;;;5010093;28;19944;-74
2021/09/06 06:46:12;;;;;;;;;;;11.60;99.90;;;;;;4992686;28;19979;-74
2021/09/06 06:48:39;;;;;;;;;;;11.70;99.90;;;;;;4992269;28;19925;-74
2021/09/06 06:51:11;;;;;;;;;;;11.70;99.90;;;;;;4988756;28;20012;-74
2021/09/06 06:53:45;;;;;;;;;;;11.80;99.90;;;;;;4993851;28;20011;-75
2021/09/06 06:56:19;;;;;;;;;;;11.90;99.90;;;;;;4995192;28;19925;-75
2021/09/06 06:58:53;;;;;;;;;;;12.00;99.90;;;;;;4994862;28;20295;-74
2021/09/06 07:01:20;;;;;;;;;;;12.00;99.90;;;;;;4994593;28;19926;-73
2021/09/06 07:03:50;;;;;;;;;;;12.10;99.90;;;;;;4990910;28;19925;-73
2021/09/06 07:06:17;;;;;;;;;;;12.20;99.90;;;;;;5011120;28;19936;-73
2021/09/06 07:08:44;;;;;;;;;;;12.30;99.90;;;;;;4992927;28;20380;-74
2021/09/06 07:11:16;;;;;;;;;;;12.40;99.90;;;;;;4993237;28;19929;-74
2021/09/06 07:13:43;;;;;;;;;;;12.50;99.90;;;;;;4993101;28;19987;-75
2021/09/06 07:16:15;;;;;;;;;;;12.60;99.90;;;;;;4992605;28;20036;-73
2021/09/06 07:18:46;;;;;;;;;;;12.60;99.90;;;;;;4977024;28;20285;-73
2021/09/06 07:21:13;;;;;;;;;;;12.80;99.90;;;;;;4992226;28;20013;-74
2021/09/06 07:23:45;;;;;;;;;;;13.00;99.90;;;;;;4976294;28;19936;-73
2021/09/06 07:26:12;;;;;;;;;;;13.00;99.90;;;;;;4990887;28;19945;-72
2021/09/06 07:28:46;;;;;;;;;;;13.10;99.90;;;;;;4977265;28;20374;-73
2021/09/06 07:31:18;;;;;;;;;;;13.20;99.90;;;;;;4992848;28;19933;-72
2021/09/06 07:33:49;;;;;;;;;;;13.30;99.90;;;;;;4991984;28;19937;-73
2021/09/06 07:36:21;;;;;;;;;;;13.40;99.90;;;;;;5030633;28;20013;-73
2021/09/06 07:38:52;;;;;;;;;;;13.40;99.90;;;;;;4990655;28;19983;-73
2021/09/06 07:41:21;;;;;;;;;;;13.50;99.90;;;;;;4991369;28;20404;-73
2021/09/06 07:43:48;;;;;;;;;;;13.60;99.90;;;;;;4993090;28;19933;-73
2021/09/06 07:46:15;;;;;;;;;;;13.80;99.90;;;;;;4990066;28;20016;-73
2021/09/06 07:48:43;;;;;;;;;;;13.80;99.90;;;;;;4975719;28;20564;-73
2021/09/06 07:51:10;;;;;;;;;;;13.90;99.90;;;;;;4990151;28;20277;-73
2021/09/06 07:53:41;;;;;;;;;;;14.00;99.90;;;;;;4988470;28;19925;-72
2021/09/06 07:56:08;;;;;;;;;;;14.10;99.90;;;;;;4989854;28;20355;-74
2021/09/06 07:58:40;;;;;;;;;;;14.20;99.90;;;;;;4974012;28;19933;-73
2021/09/06 08:01:07;;;;;;;;;;;14.30;99.90;;;;;;4989572;28;20379;-73
2021/09/06 08:03:34;;;;;;;;;;;14.40;99.90;;;;;;4991106;28;19979;-73
2021/09/06 08:06:06;;;;;;;;;;;14.60;99.90;;;;;;5008471;28;19926;-72
2021/09/06 08:08:34;;;;;;;;;;;14.70;99.90;;;;;;4994382;28;19948;-73
2021/09/06 08:11:01;;;;;;;;;;;14.80;99.90;;;;;;4990747;28;20376;-74
2021/09/06 08:13:35;;;;;;;;;;;14.90;99.90;;;;;;4991490;28;20447;-73
2021/09/06 08:16:07;;;;;;;;;;;15.00;99.90;;;;;;4975991;28;19925;-74
2021/09/06 08:18:41;;;;;;;;;;;15.10;99.90;;;;;;5015446;28;19972;-74
2021/09/06 08:21:08;;;;;;;;;;;15.20;99.90;;;;;;4993984;28;19972;-74
2021/09/06 08:23:40;;;;;;;;;;;15.40;99.90;;;;;;4993052;28;19932;-74
2021/09/06 08:26:08;;;;;;;;;;;15.50;99.90;;;;;;4992054;28;19972;-74
2021/09/06 08:28:41;;;;;;;;;;;15.60;99.90;;;;;;4992423;28;19929;-74
2021/09/06 08:31:08;;;;;;;;;;;15.80;99.90;;;;;;5000619;28;19936;-74
2021/09/06 08:33:40;;;;;;;;;;;15.90;99.90;;;;;;4976970;28;19930;-74
2021/09/06 08:36:09;;;;;;;;;;;16.00;99.90;;;;;;4992609;28;20311;-74
2021/09/06 08:38:43;;;;;;;;;;;16.20;99.90;;;;;;4993900;28;19939;-74
2021/09/06 08:41:14;;;;;;;;;;;16.30;99.90;;;;;;4977155;28;19964;-74
2021/09/06 08:43:46;;;;;;;;;;;16.50;99.90;;;;;;5016978;28;19952;-73
2021/09/06 08:46:23;;;;;;;;;;;16.60;99.90;;;;;;5000227;28;19925;-74
2021/09/06 08:48:55;;;;;;;;;;;16.70;99.90;;;;;;4992371;28;19931;-73
2021/09/06 08:51:24;;;;;;;;;;;16.80;99.90;;;;;;4992192;28;19926;-74
2021/09/06 08:53:57;;;;;;;;;;;17.00;99.90;;;;;;4992166;28;19935;-74
2021/09/06 08:56:32;;;;;;;;;;;17.10;99.90;;;;;;4995029;28;19979;-74
2021/09/06 08:59:00;;;;;;;;;;;17.30;99.90;;;;;;4992852;28;20304;-73
2021/09/06 09:01:36;;;;;;;;;;;17.40;99.90;;;;;;4975164;28;19925;-73
2021/09/06 09:04:21;;;;;;;;;;;17.50;99.90;;;;;;4994189;28;19932;-74
2021/09/06 09:07:24;;;;;;;;;;;17.70;99.90;;;;;;5002348;28;19932;-73
2021/09/06 09:10:11;;;;;;;;;;;17.80;99.90;;;;;;5016124;28;19952;-74
2021/09/06 09:12:50;;;;;;;;;;;17.90;99.90;;;;;;5011993;28;19926;-74
2021/09/06 09:15:51;;;;;;;;;;;18.00;99.90;;;;;;5012586;28;19926;-74
2021/09/06 09:18:49;;;;;;;;;;;18.20;99.90;;;;;;5011040;28;19930;-74
2021/09/06 09:21:26;;;;;;;;;;;18.40;99.90;;;;;;5015483;28;19925;-74
2021/09/06 09:24:22;;;;;;;;;;;18.50;99.90;;;;;;5012483;28;19926;-74
2021/09/06 09:27:33;;;;;;;;;;;18.70;99.90;;;;;;4972966;28;20141;-74
2021/09/06 09:30:22;;;;;;;;;;;18.90;99.90;;;;;;4972701;28;20013;-74
2021/09/06 09:33:12;;;;;;;;;;;19.00;99.90;;;;;;4988878;28;19933;-74
2021/09/06 09:35:59;;;;;;;;;;;19.10;99.90;;;;;;4979693;28;19937;-74
2021/09/06 09:38:37;;;;;;;;;;;19.30;99.90;;;;;;4980935;28;19929;-73
2021/09/06 09:41:12;;;;;;;;;;;19.40;99.90;;;;;;4996668;28;19925;-74
2021/09/06 09:43:44;;;;;;;;;;;19.60;99.90;;;;;;4996669;28;19979;-74
2021/09/06 09:46:32;;;;;;;;;;;19.70;99.90;;;;;;4999530;28;20398;-74
2021/09/06 09:49:08;;;;;;;;;;;19.90;99.90;;;;;;4994984;28;19992;-74
2021/09/06 09:51:40;;;;;;;;;;;20.00;99.90;;;;;;4980269;28;20303;-74
2021/09/06 09:54:12;;;;;;;;;;;20.10;99.90;;;;;;4995159;28;20096;-74
2021/09/06 09:56:41;;;;;;;;;;;20.20;99.90;;;;;;5013038;28;20074;-74
2021/09/06 09:59:13;;;;;;;;;;;20.40;99.90;;;;;;4996133;28;20240;-74
2021/09/06 10:01:42;;;;;;;;;;;20.50;99.90;;;;;;4995174;28;19959;-73
2021/09/06 10:04:11;;;;;;;;;;;20.60;99.90;;;;;;4995213;28;20217;-74
2021/09/06 10:06:41;;;;;;;;;;;20.70;99.90;;;;;;4996253;28;19930;-74
2021/09/06 10:09:12;;;;;;;;;;;20.80;99.90;;;;;;5013391;28;19926;-73
2021/09/06 10:11:41;;;;;;;;;;;20.90;99.90;;;;;;4995713;28;19930;-74
2021/09/06 10:14:10;;;;;;;;;;;21.00;99.90;;;;;;4995353;28;19945;-73
2021/09/06 10:16:42;;;;;;;;;;;21.10;99.90;;;;;;4980282;28;19925;-73
2021/09/06 10:19:16;;;;;;;;;;;21.20;99.90;;;;;;4979658;28;20024;-73
2021/09/06 10:21:51;;;;;;;;;;;21.30;99.90;;;;;;5011876;28;19925;-74
2021/09/06 10:24:26;;;;;;;;;;;21.40;99.90;;;;;;5012964;28;19960;-74
2021/09/06 10:27:05;;;;;;;;;;;21.60;99.90;;;;;;4995878;28;19984;-74
2021/09/06 10:29:33;;;;;;;;;;;21.70;99.90;;;;;;4995513;28;19925;-73
2021/09/06 10:32:01;;;;;;;;;;;21.80;99.90;;;;;;4995379;28;20012;-74
2021/09/06 10:34:35;;;;;;;;;;;21.90;99.90;;;;;;4979649;28;19980;-74
2021/09/06 10:37:05;;;;;;;;;;;22.10;99.90;;;;;;5012840;28;20019;-74
2021/09/06 10:39:32;;;;;;;;;;;22.20;99.90;;;;;;4995708;28;19925;-74
2021/09/06 10:42:05;;;;;;;;;;;22.30;99.90;;;;;;4995434;28;20292;-73
2021/09/06 10:44:37;;;;;;;;;;;22.30;99.90;;;;;;4994990;28;19925;-74
2021/09/06 10:47:12;;;;;;;;;;;22.40;99.90;;;;;;4979976;28;19973;-74
2021/09/06 10:49:40;;;;;;;;;;;22.50;99.90;;;;;;4995185;28;19931;-74
2021/09/06 10:52:14;;;;;;;;;;;22.50;99.90;;;;;;4979808;28;19925;-74
2021/09/06 10:54:46;;;;;;;;;;;22.60;99.90;;;;;;4994468;28;19925;-73
2021/09/06 10:57:19;;;;;;;;;;;22.70;99.90;;;;;;5012495;28;19926;-73
2021/09/06 10:59:46;;;;;;;;;;;22.80;99.90;;;;;;4995024;28;19925;-73
2021/09/06 11:02:20;;;;;;;;;;;22.90;99.90;;;;;;4994780;28;19933;-74
2021/09/06 11:04:47;;;;;;;;;;;23.00;99.90;;;;;;5012094;28;19926;-73
2021/09/06 11:07:19;;;;;;;;;;;23.00;99.90;;;;;;4995803;28;19929;-73
2021/09/06 11:09:52;;;;;;;;;;;23.10;99.90;;;;;;4995847;28;19926;-74
2021/09/06 11:12:24;;;;;;;;;;;23.10;99.90;;;;;;4994907;28;19930;-73
2021/09/06 11:14:50;;;;;;;;;;;23.20;99.90;;;;;;4994255;28;19953;-74
2021/09/06 11:17:22;;;;;;;;;;;23.30;99.90;;;;;;4994298;28;19926;-74
2021/09/06 11:19:56;;;;;;;;;;;23.40;99.90;;;;;;4979255;28;20043;-74
2021/09/06 11:22:27;;;;;;;;;;;23.50;99.90;;;;;;4994800;28;20364;-74
2021/09/06 11:24:56;;;;;;;;;;;23.50;99.90;;;;;;4978444;28;19925;-74
2021/09/06 11:27:34;;;;;;;;;;;23.60;99.90;;;;;;4994381;28;19935;-74
2021/09/06 11:30:01;;;;;;;;;;;23.60;99.90;;;;;;4978389;28;19961;-73
2021/09/06 11:32:33;;;;;;;;;;;23.60;99.50;;;;;;4978221;28;20384;-74
2021/09/06 11:35:07;;;;;;;;;;;23.70;98.80;;;;;;5011374;28;20024;-74
2021/09/06 11:37:39;;;;;;;;;;;23.70;98.50;;;;;;4994179;28;19925;-73
2021/09/06 11:40:06;;;;;;;;;;;23.80;97.90;;;;;;4994914;28;20020;-73
2021/09/06 11:42:34;;;;;;;;;;;23.90;98.00;;;;;;4994116;28;20012;-74
2021/09/06 11:45:06;;;;;;;;;;;23.90;98.80;;;;;;5011928;28;19926;-73
2021/09/06 11:47:34;;;;;;;;;;;24.00;98.40;;;;;;4993982;28;20032;-74
2021/09/06 11:50:02;;;;;;;;;;;24.00;97.70;;;;;;4992628;28;20554;-74
2021/09/06 11:52:29;;;;;;;;;;;24.10;98.40;;;;;;4993252;28;20024;-74
2021/09/06 11:55:03;;;;;;;;;;;24.10;95.00;;;;;;4993159;28;19925;-74
2021/09/06 11:57:34;;;;;;;;;;;24.20;95.00;;;;;;4978077;28;20012;-73
2021/09/06 12:00:01;;;;;;;;;;;24.20;94.00;;;;;;4993483;28;19965;-74
2021/09/06 12:03:06;;;;;;;;;;;24.30;93.80;;;;;;5011486;28;20023;-74
2021/09/06 12:05:39;;;;;;;;;;;24.40;95.10;;;;;;4987260;28;20011;-74
2021/09/06 12:08:12;;;;;;;;;;;24.40;92.60;;;;;;4978652;28;20024;-73
2021/09/06 12:10:44;;;;;;;;;;;24.50;94.60;;;;;;5011523;28;19983;-74
2021/09/06 12:13:16;;;;;;;;;;;24.50;94.00;;;;;;4994040;28;19926;-74
2021/09/06 12:15:54;;;;;;;;;;;24.60;93.80;;;;;;4993400;28;20606;-73
2021/09/06 12:18:22;;;;;;;;;;;24.60;91.90;;;;;;4994192;28;19963;-74
2021/09/06 12:20:59;;;;;;;;;;;24.60;92.40;;;;;;4978403;28;19956;-74
2021/09/06 12:23:29;;;;;;;;;;;24.60;89.40;;;;;;5011441;28;19972;-74
2021/09/06 12:26:01;;;;;;;;;;;24.70;88.50;;;;;;4993470;28;19925;-74
2021/09/06 12:28:33;;;;;;;;;;;24.80;89.20;;;;;;4994038;28;19973;-74
2021/09/06 12:31:03;;;;;;;;;;;24.90;89.20;;;;;;4993893;28;19929;-74
2021/09/06 12:33:35;;;;;;;;;;;24.90;86.60;;;;;;4994769;28;19929;-74
2021/09/06 12:36:03;;;;;;;;;;;25.00;82.30;;;;;;4993513;28;20366;-74
2021/09/06 12:38:30;;;;;;;;;;;25.00;85.00;;;;;;4993977;28;19976;-74
2021/09/06 12:41:02;;;;;;;;;;;25.00;83.20;;;;;;4994726;28;19926;-74
2021/09/06 12:43:29;;;;;;;;;;;25.10;84.40;;;;;;4995605;28;19926;-74
2021/09/06 12:45:56;;;;;;;;;;;25.20;86.20;;;;;;4996788;28;19935;-74
2021/09/06 12:48:23;;;;;;;;;;;25.20;86.20;;;;;;4997413;28;19926;-73
2021/09/06 12:50:55;;;;;;;;;;;25.30;81.90;;;;;;5015150;28;19925;-74
2021/09/06 12:53:22;;;;;;;;;;;25.30;84.90;;;;;;4997289;28;20016;-73
2021/09/06 12:55:54;;;;;;;;;;;25.40;82.40;;;;;;4996891;28;19925;-73
2021/09/06 12:58:20;;;;;;;;;;;25.40;83.80;;;;;;4997156;28;20020;-74
2021/09/06 13:00:52;;;;;;;;;;;25.40;83.00;;;;;;4981730;28;19925;-74
2021/09/06 13:03:19;;;;;;;;;;;25.50;80.90;;;;;;4997290;28;19925;-74
2021/09/06 13:05:53;;;;;;;;;;;25.60;79.50;;;;;;5014105;28;20302;-73
2021/09/06 13:08:19;;;;;;;;;;;25.60;78.30;;;;;;4997206;28;19933;-74
2021/09/06 13:10:48;;;;;;;;;;;25.60;77.20;;;;;;4997043;28;19956;-74
2021/09/06 13:13:15;;;;;;;;;;;25.60;76.40;;;;;;5014563;28;19995;-74
2021/09/06 13:15:55;;;;;;;;;;;25.60;79.10;;;;;;4997446;28;19926;-73
2021/09/06 13:18:27;;;;;;;;;;;25.70;78.80;;;;;;4997031;28;20392;-73
2021/09/06 13:20:59;;;;;;;;;;;25.70;80.10;;;;;;4981577;28;20143;-74
2021/09/06 13:23:25;;;;;;;;;;;25.80;80.00;;;;;;4996615;28;19929;-74
2021/09/06 13:25:52;;;;;;;;;;;25.90;77.30;;;;;;4996309;28;20020;-74
2021/09/06 13:28:19;;;;;;;;;;;25.90;74.20;;;;;;5014361;28;19926;-74
2021/09/06 13:30:45;;;;;;;;;;;25.90;80.50;;;;;;4996657;28;20024;-74
2021/09/06 13:33:17;;;;;;;;;;;26.00;74.60;;;;;;4996864;28;19947;-74
2021/09/06 13:35:44;;;;;;;;;;;26.00;75.90;;;;;;4995051;28;19926;-74
2021/09/06 13:38:11;;;;;;;;;;;26.10;74.50;;;;;;4996974;28;19936;-74
2021/09/06 13:40:43;;;;;;;;;;;26.20;74.90;;;;;;4996712;28;19933;-74
2021/09/06 13:43:10;;;;;;;;;;;26.20;73.00;;;;;;5013773;28;19925;-74
2021/09/06 13:45:36;;;;;;;;;;;26.30;71.20;;;;;;4998271;28;20548;-74
2021/09/06 13:48:05;;;;;;;;;;;26.30;72.10;;;;;;5004630;28;19948;-74
2021/09/06 13:50:37;;;;;;;;;;;26.30;71.70;;;;;;4996802;28;20024;-74
2021/09/06 13:53:04;;;;;;;;;;;26.40;70.80;;;;;;5028728;28;19925;-75
2021/09/06 13:55:36;;;;;;;;;;;26.40;73.30;;;;;;5003290;28;19925;-73
2021/09/06 13:58:08;;;;;;;;;;;26.50;68.80;;;;;;4998630;28;19941;-73
2021/09/06 14:00:40;;;;;;;;;;;26.60;66.00;;;;;;4997231;28;20300;-71
2021/09/06 14:03:06;;;;;;;;;;;26.70;71.40;;;;;;5015969;28;19933;-73
2021/09/06 14:05:38;;;;;;;;;;;26.70;68.70;;;;;;5005217;28;20346;-73
2021/09/06 14:08:10;;;;;;;;;;;26.70;66.80;;;;;;5016950;28;19925;-72
2021/09/06 14:10:42;;;;;;;;;;;26.80;67.00;;;;;;5017001;28;19925;-73
2021/09/06 14:13:09;;;;;;;;;;;26.80;66.10;;;;;;5000457;28;19933;-73
2021/09/06 14:15:42;;;;;;;;;;;27.10;67.50;;;;;;4997797;28;19941;-72
2021/09/06 14:18:09;;;;;;;;;;;27.10;65.90;;;;;;4996560;28;19929;-73
2021/09/06 14:20:39;;;;;;;;;;;27.20;64.50;;;;;;4998148;28;20736;-74
2021/09/06 14:23:11;;;;;;;;;;;27.20;67.00;;;;;;4984135;28;20028;-73
2021/09/06 14:25:38;;;;;;;;;;;27.30;63.60;;;;;;5021050;28;20435;-75
2021/09/06 14:28:05;;;;;;;;;;;27.40;62.10;;;;;;5018968;28;19929;-74
2021/09/06 14:30:32;;;;;;;;;;;27.60;64.10;;;;;;5015575;28;19926;-74
2021/09/06 14:33:04;;;;;;;;;;;27.70;65.20;;;;;;4999080;28;19961;-74
2021/09/06 14:35:35;;;;;;;;;;;27.90;64.50;;;;;;4995093;28;19926;-75
2021/09/06 14:38:02;;;;;;;;;;;28.10;61.00;;;;;;5020146;28;19961;-75
2021/09/06 14:40:35;;;;;;;;;;;28.30;60.10;;;;;;4975881;28;19926;-74
2021/09/06 14:43:07;;;;;;;;;;;28.50;58.30;;;;;;4997108;28;20400;-74